Hoxeyville, Michigan
Current Conditions -  °F | °C
As of 10:55 AM on Thursday 23 Oct 2014 (Local Time) from KCAD Reporting Station
Moderate Fog Moderate Fog  
Wind Chill: 31°   Ceiling: 100
Heat Index: 36°   Visibility: 0mi
Dew Point: 36°   Wind: 6mph
Humidity: 100%   Direction: 220°SW
Pressure: 30.21"   Gusts: NA
Location:  44.2433°N, 85.5328°W
Report Text: KCAD 231455Z AUTO 22005KT M1/4SM FG OVC001 02/02 A3021 RMK AO2 T00200020
Loading
Personal Weather Stations






























Interactive Weather Map New forecast layout! Learn more

10-Day Weather Forecast

Advertisements
Track Severe Weather on mobile